Horton, Michigan
Current Conditions -  °F | °C
As of 7:56 PM on Tuesday 21 Oct 2014 (Local Time) from KJXN Reporting Station
Broken Clouds Broken Clouds  
Wind Chill: 39°   Ceiling: 3900
Heat Index: 43°   Visibility: 10mi
Dew Point: 35°   Wind: 6mph
Humidity: 74%   Direction: 10°N
Pressure: 30.19"   Gusts: NA
Location:  42.15°N, 84.52°W
Report Text: KJXN 212356Z 01005KT 10SM SCT029 BKN039 06/02 A3019 RMK AO2 SLP228 T00610017 10083 20061 51019
Loading
Personal Weather Stations






























Interactive Weather Map
Tropical Storm Tracking
New forecast layout! Learn more

10-Day Weather Forecast

Advertisements
Track Severe Weather on mobile